createdAt,value
2019-04-03T00:00:16.927Z,10.54
2019-04-03T00:01:16.916Z,10.54
2019-04-03T00:02:16.257Z,10.48
2019-04-03T00:03:16.649Z,10.44
2019-04-03T00:04:16.961Z,10.41
2019-04-03T00:05:16.341Z,10.29
2019-04-03T00:06:16.708Z,10.24
2019-04-03T00:07:17.011Z,10.21
2019-04-03T00:08:16.316Z,10.20
2019-04-03T00:09:16.597Z,10.41
2019-04-03T00:10:16.952Z,10.61
2019-04-03T00:11:16.970Z,10.67
2019-04-03T00:12:16.278Z,10.77
2019-04-03T00:13:16.596Z,10.78
2019-04-03T00:14:17.132Z,10.82
2019-04-03T00:15:16.427Z,10.81
2019-04-03T00:16:16.749Z,10.75
2019-04-03T00:17:17.040Z,10.72
2019-04-03T00:18:16.774Z,10.57
2019-04-03T00:19:17.680Z,10.68
2019-04-03T00:20:17.983Z,10.71
2019-04-03T00:21:17.644Z,10.58
2019-04-03T00:22:16.508Z,10.57
2019-04-03T00:23:16.807Z,10.64
2019-04-03T00:24:17.074Z,10.68
2019-04-03T00:25:16.396Z,10.61
2019-04-03T00:26:16.698Z,10.56
2019-04-03T00:27:16.984Z,10.58
2019-04-03T00:28:16.289Z,10.52
2019-04-03T00:29:16.617Z,10.52
2019-04-03T00:30:16.930Z,10.51
2019-04-03T00:31:16.975Z,10.31
2019-04-03T00:32:16.281Z,10.19
2019-04-03T00:33:16.605Z,10.19
2019-04-03T00:34:16.998Z,10.45
2019-04-03T00:35:16.332Z,10.40
2019-04-03T00:36:16.696Z,10.24
2019-04-03T00:37:16.995Z,10.50
2019-04-03T00:38:16.278Z,10.51
2019-04-03T00:39:16.618Z,10.52
2019-04-03T00:40:16.943Z,10.44
2019-04-03T00:41:17.007Z,10.41
2019-04-03T00:42:16.295Z,10.36
2019-04-03T00:43:16.603Z,10.36
2019-04-03T00:44:16.893Z,10.40
2019-04-03T00:45:17.273Z,10.44
2019-04-03T00:46:16.609Z,10.33
2019-04-03T00:47:16.956Z,10.34
2019-04-03T00:48:16.315Z,10.29
2019-04-03T00:49:16.614Z,10.29
2019-04-03T00:50:16.949Z,10.16
2019-04-03T00:51:16.991Z,10.24
2019-04-03T00:52:16.482Z,10.26
2019-04-03T00:53:16.806Z,10.20
2019-04-03T00:54:17.096Z,10.05
2019-04-03T00:55:16.448Z,10.13
2019-04-03T00:56:16.792Z,10.03
2019-04-03T00:57:17.077Z,9.95
2019-04-03T00:58:16.626Z,9.78
2019-04-03T00:59:16.927Z,9.74
2019-04-03T01:00:16.265Z,9.64
2019-04-03T01:01:16.302Z,9.51
2019-04-03T01:02:16.832Z,9.48
2019-04-03T01:03:17.179Z,9.50
2019-04-03T01:04:16.461Z,9.45
2019-04-03T01:05:16.844Z,9.43
2019-04-03T01:06:17.181Z,9.44
2019-04-03T01:07:16.493Z,9.57
2019-04-03T01:08:16.805Z,9.82
2019-04-03T01:09:17.151Z,9.71
2019-04-03T01:10:16.476Z,9.65
2019-04-03T01:11:16.528Z,9.58
2019-04-03T01:12:16.844Z,9.71
2019-04-03T01:13:17.116Z,9.78
2019-04-03T01:14:16.416Z,9.65
2019-04-03T01:15:16.751Z,9.64
2019-04-03T01:16:17.035Z,9.64
2019-04-03T01:17:16.344Z,9.86
2019-04-03T01:18:16.655Z,9.74
2019-04-03T01:19:17.102Z,9.54
2019-04-03T01:20:16.454Z,9.45
2019-04-03T01:21:16.475Z,9.44
2019-04-03T01:22:16.741Z,9.57
2019-04-03T01:23:17.195Z,9.62
2019-04-03T01:24:16.507Z,9.57
2019-04-03T01:25:16.807Z,9.54
2019-04-03T01:26:17.140Z,9.54
2019-04-03T01:27:16.479Z,9.53
2019-04-03T01:28:16.799Z,9.47
2019-04-03T01:29:17.123Z,9.34
2019-04-03T01:30:16.433Z,9.27
2019-04-03T01:31:16.521Z,9.30
2019-04-03T01:32:16.825Z,9.27
2019-04-03T01:33:17.208Z,9.29
2019-04-03T01:34:17.767Z,9.23
2019-04-03T01:35:17.353Z,9.16
2019-04-03T01:36:17.537Z,9.12
2019-04-03T01:37:16.769Z,9.09
2019-04-03T01:38:17.646Z,9.06
2019-04-03T01:39:17.101Z,9.15
2019-04-03T01:40:16.432Z,9.22
2019-04-03T01:41:16.437Z,9.19
2019-04-03T01:42:16.724Z,9.16
2019-04-03T01:43:17.059Z,9.16
2019-04-03T01:44:16.522Z,9.13
2019-04-03T01:45:16.857Z,9.13
2019-04-03T01:46:17.155Z,9.00
2019-04-03T01:47:16.429Z,8.96
2019-04-03T01:48:16.994Z,8.95
2019-04-03T01:49:16.380Z,8.94
2019-04-03T01:50:16.773Z,8.82
2019-04-03T01:51:16.754Z,8.79
2019-04-03T01:52:17.049Z,8.75
2019-04-03T01:53:16.591Z,8.74
2019-04-03T01:54:16.884Z,8.72
2019-04-03T01:55:17.205Z,8.78
2019-04-03T01:56:16.478Z,8.79
2019-04-03T01:57:16.785Z,8.72
2019-04-03T01:58:17.089Z,8.64
2019-04-03T01:59:16.378Z,8.50
2019-04-03T02:00:16.704Z,8.51
2019-04-03T02:01:16.780Z,8.51
2019-04-03T02:02:17.399Z,8.36
2019-04-03T02:03:16.686Z,8.31
2019-04-03T02:04:16.975Z,8.30
2019-04-03T02:05:16.890Z,8.26
2019-04-03T02:06:17.211Z,8.21
2019-04-03T02:07:16.509Z,8.16
2019-04-03T02:08:16.962Z,8.17
2019-04-03T02:09:16.359Z,8.10
2019-04-03T02:10:17.684Z,8.05
2019-04-03T02:11:18.422Z,8.03
2019-04-03T02:12:17.901Z,8.02
2019-04-03T02:13:16.502Z,7.96
2019-04-03T02:14:16.833Z,7.91
2019-04-03T02:15:17.166Z,7.89
2019-04-03T02:16:16.515Z,7.91
2019-04-03T02:17:16.934Z,7.98
2019-04-03T02:18:16.222Z,7.95
2019-04-03T02:19:16.560Z,7.98
2019-04-03T02:20:16.855Z,8.06
2019-04-03T02:21:16.897Z,7.98
2019-04-03T02:22:17.203Z,8.00
2019-04-03T02:23:16.518Z,8.05
2019-04-03T02:24:16.863Z,7.96
2019-04-03T02:25:17.375Z,7.86
2019-04-03T02:26:16.703Z,7.81
2019-04-03T02:27:17.013Z,7.82
2019-04-03T02:28:16.341Z,7.84
2019-04-03T02:29:16.941Z,7.80
2019-04-03T02:30:16.248Z,7.81
2019-04-03T02:31:18.795Z,7.80
2019-04-03T02:32:16.763Z,7.77
2019-04-03T02:33:17.057Z,7.81
2019-04-03T02:34:16.738Z,7.86
2019-04-03T02:35:17.159Z,7.92
2019-04-03T02:36:16.455Z,7.91
2019-04-03T02:37:17.614Z,7.89
2019-04-03T02:38:16.291Z,7.85
2019-04-03T02:39:16.585Z,7.84
2019-04-03T02:40:16.916Z,7.91
2019-04-03T02:41:16.986Z,7.88
2019-04-03T02:42:16.291Z,7.82
2019-04-03T02:43:16.676Z,7.77
2019-04-03T02:44:18.801Z,7.75
2019-04-03T02:45:16.477Z,7.74
2019-04-03T02:46:17.013Z,7.78
2019-04-03T02:47:16.338Z,7.75
2019-04-03T02:48:16.683Z,7.68
2019-04-03T02:49:17.012Z,7.69
2019-04-03T02:50:16.605Z,7.69
2019-04-03T02:51:16.932Z,7.66
2019-04-03T02:52:16.862Z,7.66
2019-04-03T02:53:17.240Z,7.71
2019-04-03T02:54:16.544Z,7.75
2019-04-03T02:55:16.880Z,7.78
2019-04-03T02:56:17.196Z,7.78
2019-04-03T02:57:17.764Z,7.77
2019-04-03T02:58:16.808Z,7.72
2019-04-03T02:59:17.152Z,7.71
2019-04-03T03:00:16.434Z,7.72
2019-04-03T03:01:16.494Z,7.72
2019-04-03T03:02:16.803Z,7.77
2019-04-03T03:03:18.070Z,7.78
2019-04-03T03:04:20.211Z,7.78
2019-04-03T03:05:16.652Z,7.74
2019-04-03T03:06:17.363Z,7.75
2019-04-03T03:07:16.772Z,7.74
2019-04-03T03:08:17.100Z,7.71
2019-04-03T03:09:16.407Z,7.66
2019-04-03T03:10:18.965Z,7.65
2019-04-03T03:11:16.808Z,7.65
2019-04-03T03:12:17.142Z,7.58
2019-04-03T03:13:16.477Z,7.62
2019-04-03T03:14:16.800Z,7.61
2019-04-03T03:15:17.147Z,7.59
2019-04-03T03:16:17.901Z,7.61
2019-04-03T03:17:17.167Z,7.66
2019-04-03T03:18:17.068Z,7.66
2019-04-03T03:19:16.467Z,7.68
2019-04-03T03:20:16.824Z,7.64
2019-04-03T03:21:17.094Z,7.59
2019-04-03T03:22:17.914Z,7.58
2019-04-03T03:23:16.333Z,7.57
2019-04-03T03:24:16.710Z,7.58
2019-04-03T03:25:17.209Z,7.59
2019-04-03T03:26:16.572Z,7.65
2019-04-03T03:27:16.911Z,7.62
2019-04-03T03:28:17.239Z,7.66
2019-04-03T03:29:19.160Z,7.66
2019-04-03T03:30:35.425Z,7.68
2019-04-03T03:31:16.349Z,7.66
2019-04-03T03:32:19.634Z,7.65
2019-04-03T03:33:29.620Z,7.59
2019-04-03T03:34:16.988Z,7.55
2019-04-03T03:35:20.396Z,7.50
2019-04-03T03:36:21.561Z,7.45
2019-04-03T03:37:16.676Z,7.43
2019-04-03T03:38:16.260Z,7.37
2019-04-03T03:39:16.582Z,7.31
2019-04-03T03:40:17.369Z,7.29
2019-04-03T03:41:21.902Z,7.24
2019-04-03T03:42:17.350Z,7.23
2019-04-03T03:43:16.715Z,7.23
2019-04-03T03:44:17.031Z,7.20
2019-04-03T03:45:19.079Z,7.19
2019-04-03T03:46:16.821Z,7.15
2019-04-03T03:47:17.179Z,7.13
2019-04-03T03:48:16.497Z,7.12
2019-04-03T03:49:17.876Z,7.12
2019-04-03T03:50:17.453Z,7.12
2019-04-03T03:51:17.506Z,7.13
2019-04-03T03:52:16.907Z,7.09
2019-04-03T03:53:17.220Z,7.13
2019-04-03T03:54:18.307Z,7.13
2019-04-03T03:55:16.542Z,7.10
2019-04-03T03:56:16.867Z,7.10
2019-04-03T03:57:16.582Z,7.06
2019-04-03T03:58:16.883Z,7.06
2019-04-03T03:59:18.444Z,7.07
2019-04-03T04:00:16.542Z,7.03
2019-04-03T04:01:16.567Z,7.02
2019-04-03T04:02:17.128Z,7.02
2019-04-03T04:03:16.461Z,7.05
2019-04-03T04:04:16.750Z,7.09
2019-04-03T04:05:19.717Z,7.17
2019-04-03T04:06:16.988Z,7.16
2019-04-03T04:07:16.321Z,7.16
2019-04-03T04:08:16.671Z,7.06
2019-04-03T04:09:18.387Z,6.95
2019-04-03T04:10:16.976Z,6.89
2019-04-03T04:11:16.965Z,6.85
2019-04-03T04:12:16.424Z,6.88
2019-04-03T04:13:16.734Z,6.92
2019-04-03T04:14:20.765Z,6.92
2019-04-03T04:15:16.850Z,6.94
2019-04-03T04:16:17.571Z,6.94
2019-04-03T04:17:18.085Z,6.98
2019-04-03T04:18:16.346Z,7.03
2019-04-03T04:19:16.776Z,7.02
2019-04-03T04:20:17.144Z,7.03
2019-04-03T04:21:17.222Z,7.05
2019-04-03T04:22:17.692Z,7.05
2019-04-03T04:23:16.512Z,7.00
2019-04-03T04:24:16.856Z,6.98
2019-04-03T04:25:17.338Z,6.89
2019-04-03T04:26:16.695Z,6.88
2019-04-03T04:27:17.019Z,6.86
2019-04-03T04:28:16.321Z,6.86
2019-04-03T04:29:16.618Z,6.85
2019-04-03T04:30:16.947Z,6.86
2019-04-03T04:31:17.250Z,6.86
2019-04-03T04:32:16.742Z,6.89
2019-04-03T04:33:17.763Z,6.89
2019-04-03T04:34:18.691Z,6.86
2019-04-03T04:35:16.838Z,6.89
2019-04-03T04:36:17.178Z,6.96
2019-04-03T04:37:16.532Z,6.94
2019-04-03T04:38:16.838Z,6.92
2019-04-03T04:39:17.268Z,6.89
2019-04-03T04:40:16.613Z,6.94
2019-04-03T04:41:16.651Z,6.99
2019-04-03T04:42:16.970Z,7.07
2019-04-03T04:43:16.305Z,7.13
2019-04-03T04:44:16.805Z,7.17
2019-04-03T04:45:16.789Z,7.13
2019-04-03T04:46:17.658Z,7.16
2019-04-03T04:47:16.978Z,7.15
2019-04-03T04:48:17.138Z,7.13
2019-04-03T04:49:16.964Z,7.17
2019-04-03T04:50:16.495Z,7.15
2019-04-03T04:51:16.314Z,7.13
2019-04-03T04:52:16.639Z,7.10
2019-04-03T04:53:17.141Z,7.12
2019-04-03T04:54:16.463Z,7.13
2019-04-03T04:55:16.905Z,7.15
2019-04-03T04:56:16.438Z,7.07
2019-04-03T04:57:16.773Z,7.07
2019-04-03T04:58:17.240Z,7.07
2019-04-03T04:59:16.573Z,7.07
2019-04-03T05:00:17.248Z,7.15
2019-04-03T05:01:18.082Z,7.24
2019-04-03T05:02:17.809Z,7.24
2019-04-03T05:03:16.652Z,7.22
2019-04-03T05:04:16.982Z,7.19
2019-04-03T05:05:16.321Z,7.17
2019-04-03T05:06:16.620Z,7.17
2019-04-03T05:07:17.386Z,7.23
2019-04-03T05:08:16.928Z,7.30
2019-04-03T05:09:16.277Z,7.31
2019-04-03T05:10:17.810Z,7.34
2019-04-03T05:11:16.663Z,7.44
2019-04-03T05:12:16.952Z,7.43
2019-04-03T05:13:16.691Z,7.40
2019-04-03T05:14:17.967Z,7.44
2019-04-03T05:15:19.179Z,7.47
2019-04-03T05:16:19.474Z,7.44
2019-04-03T05:17:17.178Z,7.45
2019-04-03T05:18:16.623Z,7.51
2019-04-03T05:19:19.027Z,7.53
2019-04-03T05:20:19.394Z,7.57
2019-04-03T05:21:17.179Z,7.59
2019-04-03T05:22:16.487Z,7.68
2019-04-03T05:23:16.792Z,7.80
2019-04-03T05:24:17.098Z,7.88
2019-04-03T05:25:16.421Z,7.92
2019-04-03T05:26:16.712Z,7.96
2019-04-03T05:27:17.073Z,7.91
2019-04-03T05:28:16.391Z,7.92
2019-04-03T05:29:16.701Z,8.00
2019-04-03T05:30:17.023Z,8.00
2019-04-03T05:31:17.044Z,7.98
2019-04-03T05:32:16.460Z,7.93
2019-04-03T05:33:16.821Z,7.88
2019-04-03T05:34:17.166Z,7.88
2019-04-03T05:35:16.482Z,7.88
2019-04-03T05:36:17.427Z,7.95
2019-04-03T05:37:18.000Z,7.99
2019-04-03T05:38:17.079Z,7.99
2019-04-03T05:39:16.389Z,8.02
2019-04-03T05:40:16.735Z,8.02
2019-04-03T05:41:16.720Z,8.00
2019-04-03T05:42:17.035Z,8.03
2019-04-03T05:43:16.332Z,8.03
2019-04-03T05:44:16.667Z,8.06
2019-04-03T05:45:17.032Z,8.03
2019-04-03T05:46:19.033Z,8.05
2019-04-03T05:47:17.167Z,8.03
2019-04-03T05:48:17.574Z,8.06
2019-04-03T05:49:18.416Z,8.06
2019-04-03T05:50:16.950Z,8.09
2019-04-03T05:51:17.147Z,8.10
2019-04-03T05:52:16.475Z,8.13
2019-04-03T05:53:16.791Z,8.12
2019-04-03T05:54:17.085Z,8.16
2019-04-03T05:55:16.640Z,8.14
2019-04-03T05:56:17.290Z,8.16
2019-04-03T05:57:16.656Z,8.17
2019-04-03T05:58:16.958Z,8.23
2019-04-03T05:59:16.267Z,8.23
2019-04-03T06:00:16.581Z,8.26
2019-04-03T06:01:16.837Z,8.30
2019-04-03T06:02:20.137Z,8.30
2019-04-03T06:03:16.295Z,8.31
2019-04-03T06:04:16.617Z,8.34
2019-04-03T06:05:18.917Z,8.39
2019-04-03T06:06:17.255Z,8.41
2019-04-03T06:07:18.118Z,8.44
2019-04-03T06:08:16.241Z,8.48
2019-04-03T06:09:16.882Z,8.59
2019-04-03T06:10:17.175Z,8.96
2019-04-03T06:11:16.507Z,9.02
2019-04-03T06:12:18.359Z,9.15
2019-04-03T06:13:17.497Z,9.16
2019-04-03T06:14:18.721Z,9.22
2019-04-03T06:15:17.301Z,9.24
2019-04-03T06:16:17.153Z,9.26
2019-04-03T06:17:16.655Z,9.29
2019-04-03T06:18:17.710Z,9.29
2019-04-03T06:19:16.508Z,9.34
2019-04-03T06:20:16.813Z,9.36
2019-04-03T06:21:16.875Z,9.34
2019-04-03T06:22:18.664Z,9.34
2019-04-03T06:23:16.428Z,9.36
2019-04-03T06:24:17.955Z,9.41
2019-04-03T06:25:16.729Z,9.41
2019-04-03T06:26:17.130Z,9.43
2019-04-03T06:27:19.000Z,9.47
2019-04-03T06:28:16.255Z,9.47
2019-04-03T06:29:16.878Z,9.50
2019-04-03T06:30:16.962Z,9.54
2019-04-03T06:31:17.027Z,9.59
2019-04-03T06:32:16.338Z,9.59
2019-04-03T06:33:16.649Z,9.65
2019-04-03T06:34:16.947Z,9.66
2019-04-03T06:35:16.263Z,9.71
2019-04-03T06:36:17.833Z,9.68
2019-04-03T06:37:16.909Z,9.75
2019-04-03T06:38:16.261Z,9.75
2019-04-03T06:39:16.581Z,9.80
2019-04-03T06:40:16.887Z,9.81
2019-04-03T06:41:17.147Z,9.80
2019-04-03T06:42:16.505Z,9.86
2019-04-03T06:43:17.570Z,9.88
2019-04-03T06:44:17.320Z,9.89
2019-04-03T06:45:16.827Z,9.89
2019-04-03T06:46:17.170Z,9.91
2019-04-03T06:47:16.471Z,9.95
2019-04-03T06:48:16.762Z,9.96
2019-04-03T06:49:17.094Z,9.99
2019-04-03T06:50:17.470Z,10.01
2019-04-03T06:51:16.844Z,10.03
2019-04-03T06:52:17.230Z,10.03
2019-04-03T06:53:16.517Z,10.02
2019-04-03T06:54:16.811Z,10.02
2019-04-03T06:55:17.113Z,10.08
2019-04-03T06:56:16.403Z,10.10
2019-04-03T06:57:16.706Z,10.12
2019-04-03T06:58:17.228Z,10.17
2019-04-03T06:59:16.996Z,10.23
2019-04-03T07:00:16.737Z,10.30
2019-04-03T07:01:18.044Z,10.31
2019-04-03T07:02:16.804Z,10.36
2019-04-03T07:03:17.108Z,10.43
2019-04-03T07:04:16.762Z,10.45
2019-04-03T07:05:17.070Z,10.52
2019-04-03T07:06:16.478Z,10.60
2019-04-03T07:07:31.299Z,10.61
2019-04-03T07:08:28.151Z,10.65
2019-04-03T07:09:23.300Z,10.77
2019-04-03T07:10:24.745Z,10.74
2019-04-03T07:11:23.020Z,10.82
2019-04-03T07:12:16.441Z,10.88
2019-04-03T07:13:16.843Z,10.98
2019-04-03T07:14:16.566Z,11.03
2019-04-03T07:15:17.134Z,11.09
2019-04-03T07:16:16.429Z,11.17
2019-04-03T07:17:16.720Z,11.17
2019-04-03T07:18:17.051Z,11.30
2019-04-03T07:19:16.571Z,11.34
2019-04-03T07:20:19.269Z,11.43
2019-04-03T07:21:17.058Z,11.44
2019-04-03T07:22:16.362Z,11.40
2019-04-03T07:23:16.672Z,11.50
2019-04-03T07:24:16.983Z,11.57
2019-04-03T07:25:16.292Z,11.60
2019-04-03T07:26:16.578Z,11.61
2019-04-03T07:27:16.862Z,11.61
2019-04-03T07:28:17.147Z,11.63
2019-04-03T07:29:17.210Z,11.67
2019-04-03T07:30:17.829Z,11.81
2019-04-03T07:31:17.154Z,11.86
2019-04-03T07:32:17.122Z,11.88
2019-04-03T07:33:16.530Z,11.85
2019-04-03T07:34:16.882Z,11.89
2019-04-03T07:35:17.219Z,11.89
2019-04-03T07:36:16.751Z,11.89
2019-04-03T07:37:18.806Z,12.08
2019-04-03T07:38:16.940Z,12.06
2019-04-03T07:39:16.948Z,12.13
2019-04-03T07:40:18.685Z,11.93
2019-04-03T07:41:17.387Z,11.99
2019-04-03T07:42:16.664Z,12.12
2019-04-03T07:43:17.173Z,12.19
2019-04-03T07:44:16.498Z,12.30
2019-04-03T07:45:16.795Z,12.50
2019-04-03T07:46:17.089Z,12.58
2019-04-03T07:47:16.441Z,12.60
2019-04-03T07:48:16.756Z,12.61
2019-04-03T07:49:17.098Z,12.67
2019-04-03T07:50:16.570Z,12.66
2019-04-03T07:51:16.428Z,12.66
2019-04-03T07:52:17.801Z,12.61
2019-04-03T07:53:17.779Z,12.61
2019-04-03T07:54:16.710Z,12.68
2019-04-03T07:55:16.288Z,12.72
2019-04-03T07:56:16.632Z,12.63
2019-04-03T07:57:16.951Z,12.49
2019-04-03T07:58:16.499Z,12.58
2019-04-03T07:59:16.849Z,12.72
2019-04-03T08:00:16.742Z,12.84
2019-04-03T08:01:18.421Z,12.99
2019-04-03T08:02:17.220Z,12.99
2019-04-03T08:03:16.541Z,13.01
2019-04-03T08:04:17.107Z,13.05
2019-04-03T08:05:16.431Z,13.06
2019-04-03T08:06:16.769Z,13.08
2019-04-03T08:07:17.091Z,13.06
2019-04-03T08:08:16.762Z,13.04
2019-04-03T08:09:17.085Z,13.06
2019-04-03T08:10:16.385Z,12.72
2019-04-03T08:11:16.517Z,12.67
2019-04-03T08:12:17.793Z,12.75
2019-04-03T08:13:16.819Z,12.89
2019-04-03T08:14:17.991Z,12.99
2019-04-03T08:15:17.208Z,13.06
2019-04-03T08:16:16.674Z,13.02
2019-04-03T08:17:18.563Z,12.99
2019-04-03T08:18:16.805Z,13.04
2019-04-03T08:19:17.116Z,13.08
2019-04-03T08:20:19.250Z,13.01
2019-04-03T08:21:16.489Z,13.09
2019-04-03T08:22:16.790Z,13.21
2019-04-03T08:23:17.141Z,12.87
2019-04-03T08:24:16.547Z,12.74
2019-04-03T08:25:16.876Z,12.79
2019-04-03T08:26:19.092Z,12.94
2019-04-03T08:27:16.242Z,13.01
2019-04-03T08:28:16.910Z,13.01
2019-04-03T08:29:16.445Z,13.01
2019-04-03T08:30:16.804Z,12.99
2019-04-03T08:31:16.838Z,12.96
2019-04-03T08:32:17.152Z,13.06
2019-04-03T08:33:18.222Z,12.78
2019-04-03T08:34:18.025Z,13.06
2019-04-03T08:35:21.379Z,13.12
2019-04-03T08:36:23.874Z,13.16
2019-04-03T08:37:28.340Z,13.22
2019-04-03T08:38:17.122Z,13.22
2019-04-03T08:39:16.866Z,13.21
2019-04-03T08:40:19.604Z,13.21
2019-04-03T08:41:17.169Z,13.08
2019-04-03T08:42:17.019Z,13.19
2019-04-03T08:43:16.332Z,13.44
2019-04-03T08:44:16.705Z,13.40
2019-04-03T08:45:17.049Z,13.46
2019-04-03T08:46:16.741Z,13.11
2019-04-03T08:47:16.446Z,13.11
2019-04-03T08:48:17.432Z,13.06
2019-04-03T08:49:16.848Z,13.19
2019-04-03T08:50:17.169Z,13.15
2019-04-03T08:51:16.598Z,13.08
2019-04-03T08:52:16.943Z,13.06
2019-04-03T08:53:16.229Z,13.18
2019-04-03T08:54:16.533Z,13.27
2019-04-03T08:55:17.132Z,13.18
2019-04-03T08:56:17.147Z,13.08
2019-04-03T08:57:19.420Z,13.42
2019-04-03T08:58:17.198Z,13.49
2019-04-03T08:59:16.521Z,13.37
2019-04-03T09:00:16.840Z,13.42
2019-04-03T09:01:16.903Z,13.34
2019-04-03T09:02:17.196Z,13.34
2019-04-03T09:03:16.488Z,13.55
2019-04-03T09:04:17.762Z,13.43
2019-04-03T09:05:16.968Z,13.37
2019-04-03T09:06:16.473Z,13.42
2019-04-03T09:07:16.919Z,13.39
2019-04-03T09:08:16.394Z,13.42
2019-04-03T09:09:16.683Z,13.34
2019-04-03T09:10:17.015Z,13.46
2019-04-03T09:11:17.052Z,13.68
2019-04-03T09:12:16.725Z,13.68
2019-04-03T09:13:18.386Z,13.68
2019-04-03T09:14:19.410Z,13.68
2019-04-03T09:15:16.920Z,13.91
2019-04-03T09:16:16.277Z,13.94
2019-04-03T09:17:16.635Z,13.95
2019-04-03T09:18:16.920Z,13.81
2019-04-03T09:19:17.700Z,13.67
2019-04-03T09:20:17.038Z,13.87
2019-04-03T09:21:17.438Z,14.00
2019-04-03T09:22:16.758Z,13.95
2019-04-03T09:23:17.051Z,13.92
2019-04-03T09:24:16.338Z,14.07
2019-04-03T09:25:16.656Z,14.12
2019-04-03T09:26:16.955Z,14.19
2019-04-03T09:27:16.250Z,14.04
2019-04-03T09:28:16.594Z,14.07
2019-04-03T09:29:16.905Z,13.87
2019-04-03T09:30:16.667Z,13.91
2019-04-03T09:31:16.748Z,14.20
2019-04-03T09:32:16.266Z,14.25
2019-04-03T09:33:16.724Z,14.39
2019-04-03T09:34:17.199Z,14.35
2019-04-03T09:35:16.486Z,14.29
2019-04-03T09:36:16.819Z,14.09
2019-04-03T09:37:17.773Z,13.87
2019-04-03T09:38:16.775Z,13.73
2019-04-03T09:39:17.092Z,13.91
2019-04-03T09:40:17.174Z,13.92
2019-04-03T09:41:17.071Z,14.05
2019-04-03T09:42:16.351Z,14.26
2019-04-03T09:43:16.836Z,14.40
2019-04-03T09:44:17.155Z,14.28
2019-04-03T09:45:16.474Z,14.30
2019-04-03T09:46:16.772Z,14.33
2019-04-03T09:47:17.325Z,13.91
2019-04-03T09:48:16.664Z,13.91
2019-04-03T09:49:16.986Z,13.94
2019-04-03T09:50:16.270Z,14.12
2019-04-03T09:51:17.900Z,14.23
2019-04-03T09:52:17.171Z,14.23
2019-04-03T09:53:16.490Z,13.97
2019-04-03T09:54:16.775Z,13.84
2019-04-03T09:55:17.076Z,14.07
2019-04-03T09:56:16.489Z,14.04
2019-04-03T09:57:16.808Z,14.05
2019-04-03T09:58:17.117Z,13.68
2019-04-03T09:59:16.441Z,13.77
2019-04-03T10:00:16.768Z,14.18
2019-04-03T10:01:18.371Z,14.05
2019-04-03T10:02:16.906Z,14.08
2019-04-03T10:03:16.558Z,14.41
2019-04-03T10:04:17.007Z,14.55
2019-04-03T10:05:16.587Z,14.47
2019-04-03T10:06:17.295Z,14.59
2019-04-03T10:07:16.887Z,14.08
2019-04-03T10:08:17.226Z,14.15
2019-04-03T10:09:16.542Z,13.91
2019-04-03T10:10:17.054Z,14.13
2019-04-03T10:11:19.481Z,13.91
2019-04-03T10:12:16.268Z,14.18
2019-04-03T10:13:16.762Z,14.29
2019-04-03T10:14:17.442Z,14.44
2019-04-03T10:15:18.278Z,14.36
2019-04-03T10:16:16.869Z,14.53
2019-04-03T10:17:16.528Z,14.64
2019-04-03T10:18:16.826Z,14.70
2019-04-03T10:19:17.132Z,14.47
2019-04-03T10:20:17.653Z,14.68
2019-04-03T10:21:17.747Z,14.44
2019-04-03T10:22:16.950Z,14.32
2019-04-03T10:23:16.692Z,14.55
2019-04-03T10:24:17.010Z,14.46
2019-04-03T10:25:16.302Z,14.64
2019-04-03T10:26:16.618Z,14.68
2019-04-03T10:27:16.925Z,14.59
2019-04-03T10:28:16.534Z,14.71
2019-04-03T10:29:17.053Z,14.43
2019-04-03T10:30:16.844Z,14.39
2019-04-03T10:31:17.119Z,14.46
2019-04-03T10:32:16.475Z,14.49
2019-04-03T10:33:16.792Z,14.59
2019-04-03T10:34:17.141Z,14.68
2019-04-03T10:35:16.471Z,14.66
2019-04-03T10:36:18.057Z,14.60
2019-04-03T10:37:16.894Z,14.71
2019-04-03T10:38:18.186Z,14.76
2019-04-03T10:39:16.340Z,14.99
2019-04-03T10:40:16.802Z,15.14
2019-04-03T10:41:16.832Z,15.12
2019-04-03T10:42:16.487Z,14.77
2019-04-03T10:43:16.799Z,14.91
2019-04-03T10:44:17.135Z,14.88
2019-04-03T10:45:16.477Z,14.99
2019-04-03T10:46:18.554Z,15.32
2019-04-03T10:47:16.250Z,15.38
2019-04-03T10:48:16.680Z,15.06
2019-04-03T10:49:17.247Z,14.56
2019-04-03T10:50:16.614Z,14.64
2019-04-03T10:51:16.647Z,14.73
2019-04-03T10:52:17.185Z,14.91
2019-04-03T10:53:17.805Z,14.99
2019-04-03T10:54:16.865Z,15.18
2019-04-03T10:55:17.184Z,15.32
2019-04-03T10:56:16.643Z,15.02
2019-04-03T10:57:16.978Z,14.84
2019-04-03T10:58:16.279Z,14.81
2019-04-03T10:59:18.397Z,14.99
2019-04-03T11:00:16.637Z,15.28
2019-04-03T11:01:16.581Z,15.32
2019-04-03T11:02:16.893Z,15.45
2019-04-03T11:03:17.454Z,15.01
2019-04-03T11:04:16.820Z,15.01
2019-04-03T11:05:17.226Z,15.46
2019-04-03T11:06:16.936Z,15.53
2019-04-03T11:07:16.557Z,15.63
2019-04-03T11:08:17.134Z,15.76
2019-04-03T11:09:16.723Z,15.60
2019-04-03T11:10:17.070Z,15.57
2019-04-03T11:11:17.121Z,15.59
2019-04-03T11:12:16.452Z,15.82
2019-04-03T11:13:16.207Z,15.62
2019-04-03T11:14:16.843Z,15.56
2019-04-03T11:15:17.173Z,15.71
2019-04-03T11:16:16.467Z,15.63
2019-04-03T11:17:18.074Z,15.38
2019-04-03T11:18:17.128Z,15.31
2019-04-03T11:19:19.134Z,15.22
2019-04-03T11:20:16.556Z,15.45
2019-04-03T11:21:16.598Z,15.41
2019-04-03T11:22:16.871Z,15.31
2019-04-03T11:23:18.044Z,15.39
2019-04-03T11:24:16.846Z,15.49
2019-04-03T11:25:16.268Z,15.63
2019-04-03T11:26:18.301Z,15.63
2019-04-03T11:27:16.690Z,15.36
2019-04-03T11:28:17.150Z,15.46
2019-04-03T11:29:16.513Z,15.41
2019-04-03T11:30:19.113Z,15.26
2019-04-03T11:31:25.313Z,15.26
2019-04-03T11:32:17.167Z,15.23
2019-04-03T11:33:16.448Z,15.08
2019-04-03T11:34:17.920Z,15.09
2019-04-03T11:35:16.934Z,15.11
2019-04-03T11:36:17.198Z,15.05
2019-04-03T11:37:17.127Z,15.28
2019-04-03T11:38:25.890Z,15.31
2019-04-03T11:39:16.797Z,15.33
2019-04-03T11:40:18.576Z,15.35
2019-04-03T11:41:19.222Z,15.32
2019-04-03T11:42:23.495Z,15.45
2019-04-03T11:43:17.062Z,15.56
2019-04-03T11:44:16.641Z,15.69
2019-04-03T11:45:17.073Z,15.84
2019-04-03T11:46:16.375Z,15.98
2019-04-03T11:47:16.713Z,15.73
2019-04-03T11:48:17.485Z,15.45
2019-04-03T11:49:17.610Z,15.66
2019-04-03T11:50:17.006Z,15.54
2019-04-03T11:51:17.061Z,15.54
2019-04-03T11:52:16.320Z,15.56
2019-04-03T11:53:16.975Z,15.56
2019-04-03T11:54:16.322Z,15.50
2019-04-03T11:55:16.663Z,15.95
2019-04-03T11:56:16.937Z,15.88
2019-04-03T11:57:17.387Z,15.56
2019-04-03T11:58:17.946Z,15.76
2019-04-03T11:59:16.545Z,16.05
2019-04-03T12:00:16.827Z,15.94
2019-04-03T12:01:16.878Z,16.27
2019-04-03T12:02:17.186Z,16.18
2019-04-03T12:03:16.541Z,16.40
2019-04-03T12:04:16.970Z,16.33
2019-04-03T12:05:18.440Z,16.64
2019-04-03T12:06:16.790Z,16.55
2019-04-03T12:07:16.472Z,16.49
2019-04-03T12:08:17.072Z,16.55
2019-04-03T12:09:16.743Z,16.24
2019-04-03T12:10:17.057Z,16.18
2019-04-03T12:11:17.084Z,16.05
2019-04-03T12:12:16.383Z,16.21
2019-04-03T12:13:16.671Z,16.42
2019-04-03T12:14:17.772Z,16.24
2019-04-03T12:15:19.896Z,16.18
2019-04-03T12:16:16.238Z,16.08
2019-04-03T12:17:16.870Z,16.42
2019-04-03T12:18:17.317Z,16.36
2019-04-03T12:19:16.672Z,16.32
2019-04-03T12:20:16.606Z,16.25
2019-04-03T12:21:18.353Z,16.19
2019-04-03T12:22:16.950Z,16.60
2019-04-03T12:23:16.258Z,16.42
2019-04-03T12:24:16.565Z,16.38
2019-04-03T12:25:17.279Z,16.11
2019-04-03T12:26:17.506Z,16.12
2019-04-03T12:27:16.440Z,16.24
2019-04-03T12:28:18.379Z,16.19
2019-04-03T12:29:16.843Z,16.17
2019-04-03T12:30:17.361Z,16.19
2019-04-03T12:31:16.259Z,16.11
2019-04-03T12:32:16.563Z,16.32
2019-04-03T12:33:16.907Z,16.07
2019-04-03T12:34:17.335Z,16.07
2019-04-03T12:35:16.669Z,16.25
2019-04-03T12:36:16.998Z,16.25
2019-04-03T12:37:18.216Z,16.29
2019-04-03T12:38:17.201Z,16.33
2019-04-03T12:39:16.629Z,16.46
2019-04-03T12:40:17.215Z,16.42
2019-04-03T12:41:17.051Z,16.39
2019-04-03T12:42:17.123Z,16.42
2019-04-03T12:43:16.962Z,16.78
2019-04-03T12:44:16.568Z,16.50
2019-04-03T12:45:18.169Z,16.59
2019-04-03T12:46:17.416Z,16.73
2019-04-03T12:47:16.755Z,16.46
2019-04-03T12:48:17.315Z,16.52
2019-04-03T12:49:16.463Z,16.71
2019-04-03T12:50:17.168Z,16.77
2019-04-03T12:51:19.702Z,16.64
2019-04-03T12:52:17.335Z,16.52
2019-04-03T12:53:17.290Z,16.76
2019-04-03T12:54:19.363Z,16.66
2019-04-03T12:55:16.341Z,16.56
2019-04-03T12:56:16.661Z,16.78
2019-04-03T12:57:16.999Z,16.62
2019-04-03T12:58:16.690Z,16.73
2019-04-03T12:59:19.584Z,16.62
2019-04-03T13:00:16.319Z,16.84
2019-04-03T13:01:17.650Z,16.81
2019-04-03T13:02:16.313Z,16.84
2019-04-03T13:03:16.808Z,16.71
2019-04-03T13:04:17.578Z,16.55